Time,TemperatureF,DewpointF,PressureIn,WindDirection,WindDirectionDegrees,WindSpeedMPH,WindSpeedGustMPH,Humidity,HourlyPrecipIn,Conditions,Clouds,dailyrainin,SoftwareType,DateUTC
2013-03-02 00:00:00,41.4,33.4,30.16,ENE,76,0.0,0.0,73,0.00,,CLR,0.00,VWS V14.01,2013-03-02 06:00:00,
2013-03-02 00:05:00,41.1,33.1,30.16,ENE,76,0.0,0.0,73,0.00,,CLR,0.00,VWS V14.01,2013-03-02 06:05:00,
2013-03-02 00:10:00,40.9,33.3,30.16,ENE,76,0.0,0.0,74,0.00,,CLR,0.00,VWS V14.01,2013-03-02 06:10:00,
2013-03-02 00:15:00,40.6,33.3,30.16,ENE,76,0.0,0.0,75,0.00,,CLR,0.00,VWS V14.01,2013-03-02 06:15:00,
2013-03-02 00:20:00,40.4,33.1,30.15,ENE,76,0.0,0.0,75,0.00,,CLR,0.00,VWS V14.01,2013-03-02 06:20:00,
2013-03-02 00:25:00,40.2,32.9,30.16,ENE,76,0.0,0.0,75,0.00,,CLR,0.00,VWS V14.01,2013-03-02 06:25:00,
2013-03-02 00:30:00,39.9,33.0,30.16,ENE,76,0.0,0.0,76,0.00,,CLR,0.00,VWS V14.01,2013-03-02 06:30:00,
2013-03-02 00:35:00,39.7,33.1,30.16,ENE,76,0.0,0.0,77,0.00,,CLR,0.00,VWS V14.01,2013-03-02 06:35:00,
2013-03-02 00:40:00,39.5,33.5,30.16,ENE,76,0.0,0.0,79,0.00,,CLR,0.00,VWS V14.01,2013-03-02 06:40:00,
2013-03-02 00:45:00,39.4,33.4,30.16,ENE,76,0.0,0.0,79,0.00,,CLR,0.00,VWS V14.01,2013-03-02 06:45:00,
2013-03-02 00:50:00,39.3,33.7,30.15,ENE,76,0.0,0.0,80,0.00,,CLR,0.00,VWS V14.01,2013-03-02 06:50:00,
2013-03-02 00:55:00,39.3,34.3,30.16,ENE,76,0.0,0.0,82,0.00,,CLR,0.00,VWS V14.01,2013-03-02 06:55:00,
2013-03-02 01:00:00,39.1,34.4,30.16,ENE,76,0.0,0.0,83,0.00,,CLR,0.00,VWS V14.01,2013-03-02 07:00:00,
2013-03-02 01:05:00,39.0,34.3,30.15,ENE,76,0.0,0.0,83,0.00,,CLR,0.00,VWS V14.01,2013-03-02 07:05:00,
2013-03-02 01:10:00,38.8,34.1,30.16,ENE,76,0.0,0.0,83,0.00,,CLR,0.00,VWS V14.01,2013-03-02 07:10:00,
2013-03-02 01:15:00,38.6,33.6,30.16,ENE,76,0.0,0.0,82,0.00,,CLR,0.00,VWS V14.01,2013-03-02 07:15:00,
2013-03-02 01:20:00,38.6,33.9,30.16,ENE,76,0.0,1.5,83,0.00,,CLR,0.00,VWS V14.01,2013-03-02 07:20:00,
2013-03-02 01:25:00,38.6,33.6,30.16,ENE,76,0.0,0.0,82,0.00,,CLR,0.00,VWS V14.01,2013-03-02 07:25:00,
2013-03-02 01:30:00,38.7,33.7,30.16,ENE,76,0.0,0.0,82,0.00,,CLR,0.00,VWS V14.01,2013-03-02 07:30:00,
2013-03-02 01:35:00,38.7,33.1,30.16,ENE,76,0.0,3.0,80,0.00,,CLR,0.00,VWS V14.01,2013-03-02 07:35:00,
2013-03-02 01:40:00,38.9,33.3,30.16,East,86,0.0,1.5,80,0.00,,CLR,0.00,VWS V14.01,2013-03-02 07:40:00,
2013-03-02 01:45:00,38.9,33.0,30.16,East,86,0.0,0.0,79,0.00,,CLR,0.00,VWS V14.01,2013-03-02 07:45:00,
2013-03-02 01:50:00,38.9,33.0,30.16,East,86,0.0,1.5,79,0.00,,CLR,0.00,VWS V14.01,2013-03-02 07:50:00,
2013-03-02 01:55:00,38.8,32.9,30.16,East,86,0.0,0.0,79,0.00,,CLR,0.00,VWS V14.01,2013-03-02 07:55:00,
2013-03-02 02:00:00,38.7,32.8,30.16,East,86,0.0,0.0,79,0.00,,CLR,0.00,VWS V14.01,2013-03-02 08:00:00,
2013-03-02 02:05:00,38.6,32.7,30.16,East,86,0.0,0.0,79,0.00,,CLR,0.00,VWS V14.01,2013-03-02 08:05:00,
2013-03-02 02:10:00,38.4,32.8,30.16,East,86,0.0,0.0,80,0.00,,CLR,0.00,VWS V14.01,2013-03-02 08:10:00,
2013-03-02 02:15:00,38.3,32.7,30.16,East,86,0.0,0.0,80,0.00,,CLR,0.00,VWS V14.01,2013-03-02 08:15:00,
2013-03-02 02:20:00,38.2,32.6,30.16,East,86,0.0,0.0,80,0.00,,CLR,0.00,VWS V14.01,2013-03-02 08:20:00,
2013-03-02 02:25:00,38.0,32.7,30.16,East,86,0.0,0.0,81,0.00,,CLR,0.00,VWS V14.01,2013-03-02 08:25:00,
2013-03-02 02:30:00,37.9,32.3,30.16,East,86,0.0,0.0,80,0.00,,CLR,0.00,VWS V14.01,2013-03-02 08:30:00,
2013-03-02 02:35:00,37.7,32.4,30.16,East,86,0.0,0.0,81,0.00,,CLR,0.00,VWS V14.01,2013-03-02 08:35:00,
2013-03-02 02:40:00,37.4,32.1,30.16,East,86,0.0,0.0,81,0.00,,CLR,0.00,VWS V14.01,2013-03-02 08:40:00,
2013-03-02 02:45:00,37.3,32.3,30.16,East,86,0.0,0.0,82,0.00,,CLR,0.00,VWS V14.01,2013-03-02 08:45:00,
2013-03-02 02:50:00,37.2,32.5,30.16,East,86,0.0,0.0,83,0.00,,CLR,0.00,VWS V14.01,2013-03-02 08:50:00,
2013-03-02 02:55:00,37.1,32.4,30.16,East,86,0.0,0.0,83,0.00,,CLR,0.00,VWS V14.01,2013-03-02 08:55:00,
2013-03-02 03:00:00,37.0,32.3,30.15,East,86,0.0,0.0,83,0.00,,CLR,0.00,VWS V14.01,2013-03-02 09:00:00,
2013-03-02 03:05:00,36.8,32.4,30.15,East,86,0.0,0.0,84,0.00,,CLR,0.00,VWS V14.01,2013-03-02 09:05:00,
2013-03-02 03:10:00,36.6,32.2,30.16,East,86,0.0,0.0,84,0.00,,CLR,0.00,VWS V14.01,2013-03-02 09:10:00,
2013-03-02 03:15:00,36.4,32.0,30.16,East,86,0.0,0.0,84,0.00,,CLR,0.00,VWS V14.01,2013-03-02 09:15:00,
2013-03-02 03:20:00,36.2,31.8,30.16,East,86,0.0,0.0,84,0.00,,CLR,0.00,VWS V14.01,2013-03-02 09:20:00,
2013-03-02 03:25:00,36.1,32.0,30.16,East,86,0.0,0.0,85,0.00,,CLR,0.00,VWS V14.01,2013-03-02 09:25:00,
2013-03-02 03:30:00,36.1,31.7,30.16,East,86,0.0,0.0,84,0.00,,CLR,0.00,VWS V14.01,2013-03-02 09:30:00,
2013-03-02 03:35:00,36.1,31.7,30.16,East,86,0.0,0.0,84,0.00,,CLR,0.00,VWS V14.01,2013-03-02 09:35:00,
2013-03-02 03:40:00,36.1,31.7,30.16,East,86,0.0,0.0,84,0.00,,CLR,0.00,VWS V14.01,2013-03-02 09:40:00,
2013-03-02 03:45:00,36.2,32.1,30.17,East,86,0.0,0.0,85,0.00,,CLR,0.00,VWS V14.01,2013-03-02 09:45:00,
2013-03-02 03:50:00,36.1,31.7,30.17,East,86,0.0,0.0,84,0.00,,CLR,0.00,VWS V14.01,2013-03-02 09:50:00,
2013-03-02 03:55:00,36.0,31.6,30.17,East,86,0.0,0.0,84,0.00,,CLR,0.00,VWS V14.01,2013-03-02 09:55:00,
2013-03-02 04:00:00,35.8,31.5,30.17,East,86,0.0,0.0,84,0.00,,BKN060,0.00,VWS V14.01,2013-03-02 10:00:00,
2013-03-02 04:05:00,35.5,31.5,30.17,East,86,0.0,0.0,85,0.00,,BKN060,0.00,VWS V14.01,2013-03-02 10:05:00,
2013-03-02 04:10:00,35.5,31.7,30.17,East,86,0.0,0.0,86,0.00,,BKN060,0.00,VWS V14.01,2013-03-02 10:10:00,
2013-03-02 04:15:00,35.4,31.6,30.17,East,86,0.0,0.0,86,0.00,,BKN060,0.00,VWS V14.01,2013-03-02 10:15:00,
2013-03-02 04:20:00,35.4,31.9,30.17,East,86,0.0,0.0,87,0.00,,BKN060,0.00,VWS V14.01,2013-03-02 10:20:00,
2013-03-02 04:25:00,35.3,31.8,30.17,East,86,0.0,0.0,87,0.00,,BKN060,0.00,VWS V14.01,2013-03-02 10:25:00,
2013-03-02 04:30:00,35.2,32.0,30.17,East,86,0.0,0.0,88,0.00,,BKN060,0.00,VWS V14.01,2013-03-02 10:30:00,
2013-03-02 04:35:00,35.1,31.9,30.17,East,86,0.0,0.0,88,0.00,,BKN060,0.00,VWS V14.01,2013-03-02 10:35:00,
2013-03-02 04:40:00,35.1,32.2,30.17,East,86,0.0,0.0,89,0.00,,BKN060,0.00,VWS V14.01,2013-03-02 10:40:00,
2013-03-02 04:45:00,35.0,32.1,30.17,East,86,0.0,0.0,89,0.00,,BKN060,0.00,VWS V14.01,2013-03-02 10:45:00,
2013-03-02 04:50:00,35.0,32.1,30.17,East,86,0.0,0.0,89,0.00,,BKN060,0.00,VWS V14.01,2013-03-02 10:50:00,
2013-03-02 04:55:00,34.7,31.8,30.17,East,86,0.0,0.0,89,0.00,,BKN060,0.00,VWS V14.01,2013-03-02 10:55:00,
2013-03-02 05:00:00,34.6,32.0,30.17,East,86,0.0,0.0,90,0.00,,CLR,0.00,VWS V14.01,2013-03-02 11:00:00,
2013-03-02 05:05:00,34.4,31.8,30.18,East,86,0.0,0.0,90,0.00,,CLR,0.00,VWS V14.01,2013-03-02 11:05:00,
2013-03-02 05:10:00,34.2,31.6,30.18,East,86,0.0,0.0,90,0.00,,CLR,0.00,VWS V14.01,2013-03-02 11:10:00,
2013-03-02 05:15:00,34.1,31.5,30.18,East,86,0.0,0.0,90,0.00,,CLR,0.00,VWS V14.01,2013-03-02 11:15:00,
2013-03-02 05:20:00,34.1,31.5,30.18,East,86,0.0,0.0,90,0.00,,CLR,0.00,VWS V14.01,2013-03-02 11:20:00,
2013-03-02 05:25:00,34.1,31.8,30.18,East,86,0.0,0.0,91,0.00,,CLR,0.00,VWS V14.01,2013-03-02 11:25:00,
2013-03-02 05:30:00,34.2,31.9,30.18,East,86,0.0,0.0,91,0.00,,CLR,0.00,VWS V14.01,2013-03-02 11:30:00,
2013-03-02 05:35:00,34.1,31.8,30.18,East,86,0.0,0.0,91,0.00,,CLR,0.00,VWS V14.01,2013-03-02 11:35:00,
2013-03-02 05:40:00,34.0,31.6,30.18,East,86,0.0,0.0,91,0.00,,CLR,0.00,VWS V14.01,2013-03-02 11:40:00,
2013-03-02 05:45:00,33.9,31.6,30.18,East,86,0.0,0.0,91,0.00,,CLR,0.00,VWS V14.01,2013-03-02 11:45:00,
2013-03-02 05:50:00,33.9,31.6,30.18,East,86,0.0,0.0,91,0.00,,CLR,0.00,VWS V14.01,2013-03-02 11:50:00,
2013-03-02 05:55:00,34.0,31.6,30.19,East,86,0.0,0.0,91,0.00,,CLR,0.00,VWS V14.01,2013-03-02 11:55:00,
2013-03-02 06:00:00,33.9,31.3,30.19,East,86,0.0,0.0,90,0.00,,FEW060,0.00,VWS V14.01,2013-03-02 12:00:00,
2013-03-02 06:05:00,33.8,31.5,30.19,East,86,0.0,0.0,91,0.00,,FEW060,0.00,VWS V14.01,2013-03-02 12:05:00,
2013-03-02 06:10:00,33.8,31.5,30.19,East,86,0.0,0.0,91,0.00,,FEW060,0.00,VWS V14.01,2013-03-02 12:10:00,
2013-03-02 06:15:00,33.8,31.5,30.19,East,86,0.0,0.0,91,0.00,,FEW060,0.00,VWS V14.01,2013-03-02 12:15:00,
2013-03-02 06:20:00,33.7,31.4,30.19,East,86,0.0,0.0,91,0.00,,FEW060,0.00,VWS V14.01,2013-03-02 12:20:00,
2013-03-02 06:25:00,33.6,31.3,30.19,East,86,0.0,0.0,91,0.00,,FEW060,0.00,VWS V14.01,2013-03-02 12:25:00,
2013-03-02 06:30:00,33.5,31.2,30.19,East,86,0.0,0.0,91,0.00,,FEW060,0.00,VWS V14.01,2013-03-02 12:30:00,
2013-03-02 06:35:00,33.5,31.2,30.19,East,86,0.0,0.0,91,0.00,,FEW060,0.00,VWS V14.01,2013-03-02 12:35:00,
2013-03-02 06:40:00,33.5,31.2,30.19,East,86,0.0,0.0,91,0.00,,FEW060,0.00,VWS V14.01,2013-03-02 12:40:00,
2013-03-02 06:45:00,33.5,31.2,30.19,East,86,0.0,0.0,91,0.00,,FEW060,0.00,VWS V14.01,2013-03-02 12:45:00,
2013-03-02 06:50:00,33.5,31.2,30.19,East,86,0.0,0.0,91,0.00,,FEW060,0.00,VWS V14.01,2013-03-02 12:50:00,
2013-03-02 06:55:00,33.6,31.3,30.19,East,86,0.0,0.0,91,0.00,,FEW060,0.00,VWS V14.01,2013-03-02 12:55:00,
2013-03-02 07:00:00,33.8,31.5,30.19,East,86,0.0,0.0,91,0.00,,CLR,0.00,VWS V14.01,2013-03-02 13:00:00,
2013-03-02 07:05:00,33.8,31.5,30.19,East,86,0.0,0.0,91,0.00,,CLR,0.00,VWS V14.01,2013-03-02 13:05:00,
2013-03-02 07:10:00,34.0,31.6,30.19,East,86,0.0,0.0,91,0.00,,CLR,0.00,VWS V14.01,2013-03-02 13:10:00,
2013-03-02 07:15:00,34.1,31.8,30.19,East,86,0.0,0.0,91,0.00,,CLR,0.00,VWS V14.01,2013-03-02 13:15:00,
2013-03-02 07:20:00,34.3,32.0,30.19,East,86,0.0,0.0,91,0.00,,CLR,0.00,VWS V14.01,2013-03-02 13:20:00,
2013-03-02 07:25:00,34.8,32.2,30.20,East,86,0.0,0.0,90,0.00,,CLR,0.00,VWS V14.01,2013-03-02 13:25:00,
2013-03-02 07:30:00,35.3,32.1,30.20,East,86,0.0,0.0,88,0.00,,CLR,0.00,VWS V14.01,2013-03-02 13:30:00,
2013-03-02 07:35:00,35.8,32.6,30.20,East,86,0.0,0.0,88,0.00,,CLR,0.00,VWS V14.01,2013-03-02 13:35:00,
2013-03-02 07:40:00,36.3,32.5,30.20,East,86,0.0,0.0,86,0.00,,CLR,0.00,VWS V14.01,2013-03-02 13:40:00,
2013-03-02 07:45:00,36.9,32.8,30.20,East,86,0.0,0.0,85,0.00,,CLR,0.00,VWS V14.01,2013-03-02 13:45:00,
2013-03-02 07:50:00,37.4,32.7,30.20,East,86,0.0,1.5,83,0.00,,CLR,0.00,VWS V14.01,2013-03-02 13:50:00,
2013-03-02 07:55:00,38.0,33.0,30.21,East,86,0.0,1.5,82,0.00,,CLR,0.00,VWS V14.01,2013-03-02 13:55:00,
2013-03-02 08:00:00,38.7,33.1,30.21,ENE,69,1.5,3.0,80,0.00,,CLR,0.00,VWS V14.01,2013-03-02 14:00:00,
2013-03-02 08:05:00,39.3,33.0,30.21,NE,42,0.0,1.5,78,0.00,,CLR,0.00,VWS V14.01,2013-03-02 14:05:00,
2013-03-02 08:10:00,40.0,33.1,30.21,NE,42,0.0,0.0,76,0.00,,CLR,0.00,VWS V14.01,2013-03-02 14:10:00,
2013-03-02 08:15:00,40.8,33.2,30.21,NE,43,0.0,3.0,74,0.00,,CLR,0.00,VWS V14.01,2013-03-02 14:15:00,
2013-03-02 08:20:00,41.3,32.3,30.22,NNE,30,0.0,3.0,70,0.00,,CLR,0.00,VWS V14.01,2013-03-02 14:20:00,
2013-03-02 08:25:00,41.6,31.5,30.22,North,11,6.0,6.0,67,0.00,,CLR,0.00,VWS V14.01,2013-03-02 14:25:00,
2013-03-02 08:30:00,42.0,32.2,30.22,ENE,71,1.5,3.0,68,0.00,,CLR,0.00,VWS V14.01,2013-03-02 14:30:00,
2013-03-02 08:35:00,42.5,32.0,30.22,ENE,58,0.0,4.5,66,0.00,,CLR,0.00,VWS V14.01,2013-03-02 14:35:00,
2013-03-02 08:40:00,43.1,32.2,30.22,ENE,57,1.5,3.0,65,0.00,,CLR,0.00,VWS V14.01,2013-03-02 14:40:00,
2013-03-02 08:45:00,43.4,31.7,30.22,East,87,0.0,10.5,63,0.00,,CLR,0.00,VWS V14.01,2013-03-02 14:45:00,
2013-03-02 08:50:00,43.7,30.7,30.22,NNE,12,0.0,6.0,60,0.00,,CLR,0.00,VWS V14.01,2013-03-02 14:50:00,
2013-03-02 08:55:00,43.9,30.5,30.22,North,11,0.0,6.0,59,0.00,,CLR,0.00,VWS V14.01,2013-03-02 14:55:00,
2013-03-02 09:00:00,44.0,31.0,30.22,ENE,67,3.0,4.5,60,0.00,,FEW043,0.00,VWS V14.01,2013-03-02 15:00:00,
2013-03-02 09:05:00,44.1,31.5,30.21,North,5,3.0,4.5,61,0.00,,FEW043,0.00,VWS V14.01,2013-03-02 15:05:00,
2013-03-02 09:10:00,44.5,31.1,30.22,ENE,71,4.5,6.0,59,0.00,,FEW043,0.00,VWS V14.01,2013-03-02 15:10:00,
2013-03-02 09:15:00,45.0,30.3,30.22,NNE,33,1.5,10.5,56,0.00,,FEW043,0.00,VWS V14.01,2013-03-02 15:15:00,
2013-03-02 09:20:00,45.0,29.4,30.22,North,360,1.5,9.0,54,0.00,,FEW043,0.00,VWS V14.01,2013-03-02 15:20:00,
2013-03-02 09:25:00,45.0,28.9,30.22,NNW,331,7.5,9.0,53,0.00,,FEW043,0.00,VWS V14.01,2013-03-02 15:25:00,
2013-03-02 09:30:00,45.1,31.2,30.22,NE,34,4.5,4.5,58,0.00,,FEW043,0.00,VWS V14.01,2013-03-02 15:30:00,
2013-03-02 09:35:00,45.3,29.2,30.22,NE,42,4.5,12.0,53,0.00,,FEW043,0.00,VWS V14.01,2013-03-02 15:35:00,
2013-03-02 09:40:00,45.6,30.8,30.22,NE,51,6.0,6.0,56,0.00,,FEW043,0.00,VWS V14.01,2013-03-02 15:40:00,
2013-03-02 09:45:00,45.6,29.9,30.22,North,11,1.5,9.0,54,0.00,,FEW043,0.00,VWS V14.01,2013-03-02 15:45:00,
2013-03-02 09:50:00,44.7,28.6,30.21,NNW,346,3.0,12.0,53,0.00,,FEW043,0.00,VWS V14.01,2013-03-02 15:50:00,
2013-03-02 09:55:00,44.5,29.4,30.21,NNW,346,6.0,10.5,55,0.00,,FEW043,0.00,VWS V14.01,2013-03-02 15:55:00,
2013-03-02 10:00:00,44.9,29.7,30.21,North,355,1.5,7.5,55,0.00,,FEW043,0.00,VWS V14.01,2013-03-02 16:00:00,
2013-03-02 10:05:00,45.9,30.2,30.21,East,81,1.5,9.0,54,0.00,,FEW043,0.00,VWS V14.01,2013-03-02 16:05:00,
2013-03-02 10:10:00,46.7,30.0,30.21,East,86,0.0,7.5,52,0.00,,FEW043,0.00,VWS V14.01,2013-03-02 16:10:00,
2013-03-02 10:15:00,47.1,30.4,30.21,North,355,13.5,13.5,52,0.00,,FEW043,0.00,VWS V14.01,2013-03-02 16:15:00,
2013-03-02 10:20:00,45.9,28.8,30.21,NNW,342,7.5,12.0,51,0.00,,FEW043,0.00,VWS V14.01,2013-03-02 16:20:00,
2013-03-02 10:25:00,45.2,29.1,30.21,North,350,6.0,13.5,53,0.00,,FEW043,0.00,VWS V14.01,2013-03-02 16:25:00,
2013-03-02 10:30:00,45.4,28.8,30.21,North,5,12.0,13.5,52,0.00,,FEW043,0.00,VWS V14.01,2013-03-02 16:30:00,
2013-03-02 10:35:00,45.4,28.8,30.21,NNW,344,10.5,10.5,52,0.00,,FEW043,0.00,VWS V14.01,2013-03-02 16:35:00,
2013-03-02 10:40:00,46.4,32.4,30.21,NE,55,3.0,10.5,58,0.00,,FEW043,0.00,VWS V14.01,2013-03-02 16:40:00,
2013-03-02 10:45:00,47.0,29.8,30.21,NNW,346,3.0,13.5,51,0.00,,FEW043,0.00,VWS V14.01,2013-03-02 16:45:00,
2013-03-02 10:50:00,47.3,31.5,30.21,North,9,1.5,7.5,54,0.00,,FEW043,0.00,VWS V14.01,2013-03-02 16:50:00,
2013-03-02 10:55:00,47.9,30.2,30.21,NNW,344,10.5,18.0,50,0.00,,FEW043,0.00,VWS V14.01,2013-03-02 16:55:00,
2013-03-02 11:00:00,47.1,29.4,30.21,North,360,12.0,15.0,50,0.00,,OVC050,0.00,VWS V14.01,2013-03-02 17:00:00,
2013-03-02 11:05:00,46.3,30.1,30.21,NNE,28,3.0,18.0,53,0.00,,OVC050,0.00,VWS V14.01,2013-03-02 17:05:00,
2013-03-02 11:10:00,46.7,30.5,30.21,NNW,334,7.5,16.5,53,0.00,,OVC050,0.00,VWS V14.01,2013-03-02 17:10:00,
2013-03-02 11:15:00,47.5,30.3,30.21,North,5,9.0,13.5,51,0.00,,OVC050,0.00,VWS V14.01,2013-03-02 17:15:00,
2013-03-02 11:20:00,46.5,29.4,30.21,North,355,9.0,18.0,51,0.00,,OVC050,0.00,VWS V14.01,2013-03-02 17:20:00,
2013-03-02 11:25:00,46.2,29.6,30.21,NNE,16,9.0,9.0,52,0.00,,OVC050,0.00,VWS V14.01,2013-03-02 17:25:00,
2013-03-02 11:30:00,46.0,30.3,30.20,North,360,4.5,10.5,54,0.00,,OVC050,0.00,VWS V14.01,2013-03-02 17:30:00,
2013-03-02 11:35:00,46.2,30.0,30.20,NNE,12,7.5,15.0,53,0.00,,OVC050,0.00,VWS V14.01,2013-03-02 17:35:00,
2013-03-02 11:40:00,45.8,30.1,30.20,NNW,335,6.0,16.5,54,0.00,,OVC050,0.00,VWS V14.01,2013-03-02 17:40:00,
2013-03-02 11:45:00,45.9,31.1,30.20,NNW,336,12.0,13.5,56,0.00,,OVC050,0.00,VWS V14.01,2013-03-02 17:45:00,
2013-03-02 11:50:00,46.3,31.5,30.20,NW,311,6.0,12.0,56,0.00,,OVC050,0.00,VWS V14.01,2013-03-02 17:50:00,
2013-03-02 11:55:00,46.3,31.9,30.20,North,355,13.5,13.5,57,0.00,,OVC050,0.00,VWS V14.01,2013-03-02 17:55:00,
2013-03-02 12:00:00,45.6,31.3,30.19,NNW,336,13.5,16.5,57,0.00,,OVC050,0.00,VWS V14.01,2013-03-02 18:00:00,
2013-03-02 12:05:00,46.2,32.7,30.19,North,360,7.5,13.5,59,0.00,,OVC049,0.00,VWS V14.01,2013-03-02 18:05:00,
2013-03-02 12:10:00,46.5,32.5,30.19,NNW,347,7.5,13.5,58,0.00,,OVC049,0.00,VWS V14.01,2013-03-02 18:10:00,
2013-03-02 12:15:00,46.0,31.2,30.19,NNW,333,4.5,16.5,56,0.00,,OVC049,0.00,VWS V14.01,2013-03-02 18:15:00,
2013-03-02 12:20:00,45.7,32.2,30.19,NNW,341,7.5,12.0,59,0.00,,OVC049,0.00,VWS V14.01,2013-03-02 18:20:00,
2013-03-02 12:25:00,46.6,33.0,30.19,NNW,337,10.5,16.5,59,0.00,,OVC049,0.00,VWS V14.01,2013-03-02 18:25:00,
2013-03-02 12:30:00,46.4,32.0,30.18,North,5,9.0,15.0,57,0.00,,OVC049,0.00,VWS V14.01,2013-03-02 18:30:00,
2013-03-02 12:35:00,45.9,32.0,30.18,NNW,338,7.5,12.0,58,0.00,,OVC049,0.00,VWS V14.01,2013-03-02 18:35:00,
2013-03-02 12:40:00,45.5,31.2,30.18,North,355,7.5,19.5,57,0.00,,OVC049,0.00,VWS V14.01,2013-03-02 18:40:00,
2013-03-02 12:45:00,45.6,31.3,30.18,NNW,347,1.5,12.0,57,0.00,,OVC049,0.00,VWS V14.01,2013-03-02 18:45:00,
2013-03-02 12:50:00,45.8,31.0,30.17,NE,41,7.5,12.0,56,0.00,,OVC049,0.00,VWS V14.01,2013-03-02 18:50:00,
2013-03-02 12:55:00,46.1,31.3,30.17,NW,325,6.0,16.5,56,0.00,,OVC049,0.00,VWS V14.01,2013-03-02 18:55:00,
2013-03-02 13:00:00,46.9,31.1,30.17,NNW,346,9.0,13.5,54,0.00,,OVC049,0.00,VWS V14.01,2013-03-02 19:00:00,
2013-03-02 13:05:00,46.5,29.8,30.17,NW,308,15.0,15.0,52,0.00,,OVC041,0.00,VWS V14.01,2013-03-02 19:05:00,
2013-03-02 13:10:00,46.0,30.3,30.17,NNW,331,3.0,12.0,54,0.00,,OVC041,0.00,VWS V14.01,2013-03-02 19:10:00,
2013-03-02 13:15:00,45.9,30.2,30.17,North,9,7.5,10.5,54,0.00,,OVC041,0.00,VWS V14.01,2013-03-02 19:15:00,
2013-03-02 13:20:00,45.5,30.3,30.17,NW,321,6.0,13.5,55,0.00,,OVC041,0.00,VWS V14.01,2013-03-02 19:20:00,
2013-03-02 13:25:00,45.0,30.3,30.16,North,355,9.0,15.0,56,0.00,,OVC041,0.00,VWS V14.01,2013-03-02 19:25:00,
2013-03-02 13:30:00,44.9,30.6,30.16,NNW,334,6.0,15.0,57,0.00,,OVC041,0.00,VWS V14.01,2013-03-02 19:30:00,
2013-03-02 13:35:00,44.9,30.2,30.16,North,5,10.5,15.0,56,0.00,,OVC041,0.00,VWS V14.01,2013-03-02 19:35:00,
2013-03-02 13:40:00,45.0,30.7,30.16,North,5,9.0,18.0,57,0.00,,OVC041,0.00,VWS V14.01,2013-03-02 19:40:00,
2013-03-02 13:45:00,44.7,30.0,30.16,NNW,347,7.5,19.5,56,0.00,,OVC041,0.00,VWS V14.01,2013-03-02 19:45:00,
2013-03-02 13:50:00,44.6,30.3,30.16,North,355,12.0,16.5,57,0.00,,OVC041,0.00,VWS V14.01,2013-03-02 19:50:00,
2013-03-02 13:55:00,44.8,31.8,30.16,NNW,337,4.5,6.0,60,0.00,,OVC041,0.00,VWS V14.01,2013-03-02 19:55:00,
2013-03-02 14:00:00,44.9,30.6,30.16,North,355,9.0,13.5,57,0.00,,OVC041,0.00,VWS V14.01,2013-03-02 20:00:00,
2013-03-02 14:05:00,44.8,30.9,30.16,NW,324,6.0,10.5,58,0.00,,OVC042,0.00,VWS V14.01,2013-03-02 20:05:00,
2013-03-02 14:10:00,45.0,31.1,30.16,North,355,3.0,15.0,58,0.00,,OVC042,0.00,VWS V14.01,2013-03-02 20:10:00,
2013-03-02 14:15:00,44.9,31.0,30.16,North,5,3.0,10.5,58,0.00,,OVC042,0.00,VWS V14.01,2013-03-02 20:15:00,
2013-03-02 14:20:00,44.8,30.9,30.16,NE,55,7.5,10.5,58,0.00,,OVC042,0.00,VWS V14.01,2013-03-02 20:20:00,
2013-03-02 14:25:00,44.6,31.2,30.16,North,10,7.5,13.5,59,0.00,,OVC042,0.00,VWS V14.01,2013-03-02 20:25:00,
2013-03-02 14:30:00,44.4,31.4,30.16,NNW,344,10.5,10.5,60,0.00,,OVC042,0.00,VWS V14.01,2013-03-02 20:30:00,
2013-03-02 14:35:00,44.5,32.3,30.16,NE,50,4.5,10.5,62,0.00,,OVC042,0.00,VWS V14.01,2013-03-02 20:35:00,
2013-03-02 14:40:00,44.6,31.6,30.16,NNW,335,9.0,18.0,60,0.00,,OVC042,0.00,VWS V14.01,2013-03-02 20:40:00,
2013-03-02 14:45:00,44.5,31.5,30.16,NNW,329,12.0,15.0,60,0.00,,OVC042,0.00,VWS V14.01,2013-03-02 20:45:00,
2013-03-02 14:50:00,44.1,29.9,30.16,NNE,19,13.5,15.0,57,0.00,,OVC042,0.00,VWS V14.01,2013-03-02 20:50:00,
2013-03-02 14:55:00,44.3,31.3,30.16,NNE,16,0.0,9.0,60,0.00,,OVC042,0.00,VWS V14.01,2013-03-02 20:55:00,
2013-03-02 15:00:00,44.0,31.0,30.16,NNE,13,0.0,16.5,60,0.00,,OVC042,0.00,VWS V14.01,2013-03-02 21:00:00,
2013-03-02 15:05:00,43.7,30.7,30.16,ENE,59,1.5,13.5,60,0.00,,OVC044,0.00,VWS V14.01,2013-03-02 21:05:00,
2013-03-02 15:10:00,43.9,30.5,30.16,NE,40,4.5,13.5,59,0.00,,OVC044,0.00,VWS V14.01,2013-03-02 21:10:00,
2013-03-02 15:15:00,44.0,30.6,30.16,NNW,344,6.0,12.0,59,0.00,,OVC044,0.00,VWS V14.01,2013-03-02 21:15:00,
2013-03-02 15:20:00,44.1,30.7,30.16,NNW,344,4.5,9.0,59,0.00,,OVC044,0.00,VWS V14.01,2013-03-02 21:20:00,
2013-03-02 15:25:00,44.1,29.9,30.16,NNW,340,3.0,13.5,57,0.00,,OVC044,0.00,VWS V14.01,2013-03-02 21:25:00,
2013-03-02 15:30:00,44.4,28.8,30.16,North,351,10.5,13.5,54,0.00,,OVC044,0.00,VWS V14.01,2013-03-02 21:30:00,
2013-03-02 15:35:00,44.3,29.2,30.16,NNE,24,7.5,15.0,55,0.00,,OVC044,0.00,VWS V14.01,2013-03-02 21:35:00,
2013-03-02 15:40:00,44.2,28.6,30.16,NNE,16,10.5,19.5,54,0.00,,OVC044,0.00,VWS V14.01,2013-03-02 21:40:00,
2013-03-02 15:45:00,44.6,29.5,30.16,NNW,332,6.0,12.0,55,0.00,,OVC044,0.00,VWS V14.01,2013-03-02 21:45:00,
2013-03-02 15:50:00,44.6,29.0,30.17,North,9,10.5,16.5,54,0.00,,OVC044,0.00,VWS V14.01,2013-03-02 21:50:00,
2013-03-02 15:55:00,44.4,28.8,30.17,NNW,341,7.5,10.5,54,0.00,,OVC044,0.00,VWS V14.01,2013-03-02 21:55:00,
2013-03-02 16:00:00,44.5,29.4,30.17,NE,44,4.5,7.5,55,0.00,,OVC044,0.00,VWS V14.01,2013-03-02 22:00:00,
2013-03-02 16:05:00,44.5,28.5,30.17,East,87,4.5,12.0,53,0.00,,OVC044,0.00,VWS V14.01,2013-03-02 22:05:00,
2013-03-02 16:10:00,45.2,29.1,30.17,North,5,4.5,10.5,53,0.00,,OVC044,0.00,VWS V14.01,2013-03-02 22:10:00,
2013-03-02 16:15:00,45.1,27.6,30.17,NNE,22,12.0,15.0,50,0.00,,OVC044,0.00,VWS V14.01,2013-03-02 22:15:00,
2013-03-02 16:20:00,44.5,28.0,30.17,North,5,4.5,15.0,52,0.00,,OVC044,0.00,VWS V14.01,2013-03-02 22:20:00,
2013-03-02 16:25:00,44.1,28.1,30.17,NNE,30,7.5,9.0,53,0.00,,OVC044,0.00,VWS V14.01,2013-03-02 22:25:00,
2013-03-02 16:30:00,43.8,28.2,30.18,ENE,70,7.5,13.5,54,0.00,,OVC044,0.00,VWS V14.01,2013-03-02 22:30:00,
2013-03-02 16:35:00,43.7,28.6,30.18,NE,56,0.0,6.0,55,0.00,,OVC044,0.00,VWS V14.01,2013-03-02 22:35:00,
2013-03-02 16:40:00,44.0,28.4,30.18,East,80,7.5,10.5,54,0.00,,OVC044,0.00,VWS V14.01,2013-03-02 22:40:00,
2013-03-02 16:45:00,44.3,28.3,30.18,NNE,14,9.0,13.5,53,0.00,,OVC044,0.00,VWS V14.01,2013-03-02 22:45:00,
2013-03-02 16:50:00,44.3,28.3,30.18,NE,46,3.0,12.0,53,0.00,,OVC044,0.00,VWS V14.01,2013-03-02 22:50:00,
2013-03-02 16:55:00,43.9,27.9,30.18,NE,34,4.5,10.5,53,0.00,,OVC044,0.00,VWS V14.01,2013-03-02 22:55:00,
2013-03-02 17:00:00,43.4,27.9,30.18,NNE,30,1.5,10.5,54,0.00,,OVC044,0.00,VWS V14.01,2013-03-02 23:00:00,
2013-03-02 17:05:00,43.4,27.9,30.19,North,5,1.5,10.5,54,0.00,,OVC044,0.00,VWS V14.01,2013-03-02 23:05:00,
2013-03-02 17:10:00,43.0,28.4,30.19,NE,41,1.5,7.5,56,0.00,,OVC044,0.00,VWS V14.01,2013-03-02 23:10:00,
2013-03-02 17:15:00,42.9,27.9,30.19,NE,46,7.5,12.0,55,0.00,,OVC044,0.00,VWS V14.01,2013-03-02 23:15:00,
2013-03-02 17:20:00,42.7,27.7,30.19,NE,50,4.5,9.0,55,0.00,,OVC044,0.00,VWS V14.01,2013-03-02 23:20:00,
2013-03-02 17:25:00,42.2,27.2,30.20,North,360,1.5,10.5,55,0.00,,OVC044,0.00,VWS V14.01,2013-03-02 23:25:00,
2013-03-02 17:30:00,41.8,27.3,30.20,NNE,12,6.0,10.5,56,0.00,,OVC044,0.00,VWS V14.01,2013-03-02 23:30:00,
2013-03-02 17:35:00,41.6,27.5,30.20,NNE,13,10.5,21.0,57,0.00,,OVC044,0.00,VWS V14.01,2013-03-02 23:35:00,
2013-03-02 17:40:00,41.5,27.0,30.20,North,360,13.5,19.5,56,0.00,,OVC044,0.00,VWS V14.01,2013-03-02 23:40:00,
2013-03-02 17:45:00,41.3,27.2,30.20,North,355,7.5,12.0,57,0.00,,OVC044,0.00,VWS V14.01,2013-03-02 23:45:00,
2013-03-02 17:50:00,41.2,27.1,30.20,NNE,15,3.0,12.0,57,0.00,,OVC044,0.00,VWS V14.01,2013-03-02 23:50:00,
2013-03-02 17:55:00,41.1,27.0,30.20,NNE,15,10.5,12.0,57,0.00,,OVC044,0.00,VWS V14.01,2013-03-02 23:55:00,
2013-03-02 18:00:00,40.9,27.3,30.21,NNE,29,0.0,7.5,58,0.00,,OVC044,0.00,VWS V14.01,2013-03-03 00:00:00,
2013-03-02 18:05:00,40.8,27.6,30.21,NE,44,4.5,10.5,59,0.00,,CLR,0.00,VWS V14.01,2013-03-03 00:05:00,
2013-03-02 18:10:00,40.6,27.0,30.21,NNE,22,3.0,7.5,58,0.00,,CLR,0.00,VWS V14.01,2013-03-03 00:10:00,
2013-03-02 18:15:00,40.4,27.2,30.21,NNE,19,1.5,7.5,59,0.00,,CLR,0.00,VWS V14.01,2013-03-03 00:15:00,
2013-03-02 18:20:00,40.3,27.5,30.21,NE,34,0.0,4.5,60,0.00,,CLR,0.00,VWS V14.01,2013-03-03 00:20:00,
2013-03-02 18:25:00,40.1,27.8,30.21,NE,34,1.5,4.5,61,0.00,,CLR,0.00,VWS V14.01,2013-03-03 00:25:00,
2013-03-02 18:30:00,39.9,27.2,30.21,ENE,74,4.5,13.5,60,0.00,,CLR,0.00,VWS V14.01,2013-03-03 00:30:00,
2013-03-02 18:35:00,40.0,27.2,30.22,NE,55,1.5,10.5,60,0.00,,CLR,0.00,VWS V14.01,2013-03-03 00:35:00,
2013-03-02 18:40:00,39.9,27.6,30.22,North,5,4.5,4.5,61,0.00,,CLR,0.00,VWS V14.01,2013-03-03 00:40:00,
2013-03-02 18:45:00,39.8,27.5,30.22,NE,46,0.0,6.0,61,0.00,,CLR,0.00,VWS V14.01,2013-03-03 00:45:00,
2013-03-02 18:50:00,39.7,27.4,30.23,ENE,62,1.5,3.0,61,0.00,,CLR,0.00,VWS V14.01,2013-03-03 00:50:00,
2013-03-02 18:55:00,39.5,27.6,30.23,ENE,62,0.0,1.5,62,0.00,,CLR,0.00,VWS V14.01,2013-03-03 00:55:00,
2013-03-02 19:00:00,39.3,27.4,30.23,NE,49,0.0,3.0,62,0.00,,CLR,0.00,VWS V14.01,2013-03-03 01:00:00,
2013-03-02 19:05:00,39.2,27.7,30.23,NE,49,0.0,3.0,63,0.00,,CLR,0.00,VWS V14.01,2013-03-03 01:05:00,
2013-03-02 19:10:00,39.1,27.6,30.23,NE,49,0.0,3.0,63,0.00,,CLR,0.00,VWS V14.01,2013-03-03 01:10:00,
2013-03-02 19:15:00,38.9,27.4,30.24,NE,49,0.0,1.5,63,0.00,,CLR,0.00,VWS V14.01,2013-03-03 01:15:00,
2013-03-02 19:20:00,38.8,27.7,30.24,NE,46,0.0,4.5,64,0.00,,CLR,0.00,VWS V14.01,2013-03-03 01:20:00,
2013-03-02 19:25:00,38.7,27.6,30.24,NE,46,0.0,1.5,64,0.00,,CLR,0.00,VWS V14.01,2013-03-03 01:25:00,
2013-03-02 19:30:00,38.5,27.8,30.24,NE,46,0.0,0.0,65,0.00,,CLR,0.00,VWS V14.01,2013-03-03 01:30:00,
2013-03-02 19:35:00,38.4,27.7,30.24,NE,45,0.0,4.5,65,0.00,,CLR,0.00,VWS V14.01,2013-03-03 01:35:00,
2013-03-02 19:40:00,38.3,27.6,30.24,NE,42,0.0,3.0,65,0.00,,CLR,0.00,VWS V14.01,2013-03-03 01:40:00,
2013-03-02 19:45:00,38.3,28.0,30.24,NE,49,0.0,4.5,66,0.00,,CLR,0.00,VWS V14.01,2013-03-03 01:45:00,
2013-03-02 19:50:00,38.2,27.9,30.24,NE,49,0.0,0.0,66,0.00,,CLR,0.00,VWS V14.01,2013-03-03 01:50:00,
2013-03-02 19:55:00,38.1,27.8,30.24,NE,49,0.0,0.0,66,0.00,,CLR,0.00,VWS V14.01,2013-03-03 01:55:00,
2013-03-02 20:00:00,38.0,27.7,30.24,NE,49,0.0,1.5,66,0.00,,CLR,0.00,VWS V14.01,2013-03-03 02:00:00,
2013-03-02 20:05:00,37.9,27.6,30.24,NE,49,0.0,0.0,66,0.00,,CLR,0.00,VWS V14.01,2013-03-03 02:05:00,
2013-03-02 20:10:00,37.8,27.8,30.24,NE,49,0.0,0.0,67,0.00,,CLR,0.00,VWS V14.01,2013-03-03 02:10:00,
2013-03-02 20:15:00,37.7,27.8,30.24,NE,49,0.0,0.0,67,0.00,,CLR,0.00,VWS V14.01,2013-03-03 02:15:00,
2013-03-02 20:20:00,37.5,27.5,30.24,NE,49,0.0,0.0,67,0.00,,CLR,0.00,VWS V14.01,2013-03-03 02:20:00,
2013-03-02 20:25:00,37.3,27.7,30.24,NE,49,0.0,0.0,68,0.00,,CLR,0.00,VWS V14.01,2013-03-03 02:25:00,
2013-03-02 20:30:00,37.2,27.6,30.25,NE,49,0.0,0.0,68,0.00,,CLR,0.00,VWS V14.01,2013-03-03 02:30:00,
2013-03-02 20:35:00,37.1,27.9,30.25,NE,49,0.0,0.0,69,0.00,,CLR,0.00,VWS V14.01,2013-03-03 02:35:00,
2013-03-02 20:40:00,37.0,28.1,30.25,NE,49,0.0,0.0,70,0.00,,CLR,0.00,VWS V14.01,2013-03-03 02:40:00,
2013-03-02 20:45:00,36.8,28.0,30.25,NE,49,0.0,0.0,70,0.00,,CLR,0.00,VWS V14.01,2013-03-03 02:45:00,
2013-03-02 20:50:00,36.5,27.7,30.25,NE,49,0.0,0.0,70,0.00,,CLR,0.00,VWS V14.01,2013-03-03 02:50:00,
2013-03-02 20:55:00,36.1,27.3,30.25,NE,49,0.0,0.0,70,0.00,,CLR,0.00,VWS V14.01,2013-03-03 02:55:00,
2013-03-02 21:00:00,35.7,27.2,30.25,NE,49,0.0,0.0,71,0.00,,CLR,0.00,VWS V14.01,2013-03-03 03:00:00,
2013-03-02 21:05:00,35.3,27.2,30.25,NE,49,0.0,0.0,72,0.00,,CLR,0.00,VWS V14.01,2013-03-03 03:05:00,
2013-03-02 21:10:00,35.2,27.8,30.25,NE,49,0.0,0.0,74,0.00,,CLR,0.00,VWS V14.01,2013-03-03 03:10:00,
2013-03-02 21:15:00,35.0,28.2,30.25,NE,49,0.0,0.0,76,0.00,,CLR,0.00,VWS V14.01,2013-03-03 03:15:00,
2013-03-02 21:20:00,34.8,28.0,30.25,NE,49,0.0,0.0,76,0.00,,CLR,0.00,VWS V14.01,2013-03-03 03:20:00,
2013-03-02 21:25:00,34.7,28.2,30.25,NE,49,0.0,0.0,77,0.00,,CLR,0.00,VWS V14.01,2013-03-03 03:25:00,
2013-03-02 21:30:00,34.6,28.5,30.25,NE,49,0.0,0.0,78,0.00,,CLR,0.00,VWS V14.01,2013-03-03 03:30:00,
2013-03-02 21:35:00,34.5,28.4,30.25,NE,49,0.0,0.0,78,0.00,,CLR,0.00,VWS V14.01,2013-03-03 03:35:00,
2013-03-02 21:40:00,34.2,27.8,30.25,NE,49,0.0,0.0,77,0.00,,CLR,0.00,VWS V14.01,2013-03-03 03:40:00,
2013-03-02 21:45:00,34.0,27.9,30.25,NE,49,0.0,0.0,78,0.00,,CLR,0.00,VWS V14.01,2013-03-03 03:45:00,
2013-03-02 21:50:00,33.9,28.4,30.25,NE,49,0.0,0.0,80,0.00,,CLR,0.00,VWS V14.01,2013-03-03 03:50:00,
2013-03-02 21:55:00,33.7,28.5,30.25,NE,49,0.0,0.0,81,0.00,,CLR,0.00,VWS V14.01,2013-03-03 03:55:00,
2013-03-02 22:00:00,33.4,28.2,30.25,NE,49,0.0,0.0,81,0.00,,CLR,0.00,VWS V14.01,2013-03-03 04:00:00,
2013-03-02 22:05:00,33.2,28.6,30.25,NE,49,0.0,0.0,83,0.00,,CLR,0.00,VWS V14.01,2013-03-03 04:05:00,
2013-03-02 22:10:00,33.0,28.4,30.25,NE,49,0.0,0.0,83,0.00,,CLR,0.00,VWS V14.01,2013-03-03 04:10:00,
2013-03-02 22:15:00,32.9,28.6,30.24,NE,49,0.0,0.0,84,0.00,,CLR,0.00,VWS V14.01,2013-03-03 04:15:00,
2013-03-02 22:20:00,32.9,28.6,30.25,NE,49,0.0,0.0,84,0.00,,CLR,0.00,VWS V14.01,2013-03-03 04:20:00,
2013-03-02 22:25:00,32.8,28.8,30.25,NE,49,0.0,0.0,85,0.00,,CLR,0.00,VWS V14.01,2013-03-03 04:25:00,
2013-03-02 22:30:00,32.7,28.7,30.25,NE,49,0.0,0.0,85,0.00,,CLR,0.00,VWS V14.01,2013-03-03 04:30:00,
2013-03-02 22:35:00,32.5,28.5,30.25,NE,49,0.0,0.0,85,0.00,,CLR,0.00,VWS V14.01,2013-03-03 04:35:00,
2013-03-02 22:40:00,32.3,28.3,30.25,NE,49,0.0,0.0,85,0.00,,CLR,0.00,VWS V14.01,2013-03-03 04:40:00,
2013-03-02 22:45:00,32.1,28.1,30.25,NE,49,0.0,0.0,85,0.00,,CLR,0.00,VWS V14.01,2013-03-03 04:45:00,
2013-03-02 22:50:00,31.9,28.2,30.25,NE,49,0.0,0.0,86,0.00,,CLR,0.00,VWS V14.01,2013-03-03 04:50:00,
2013-03-02 22:54:00,31.7,28.3,30.25,NE,49,0.0,0.0,87,0.00,,CLR,0.00,VWS V14.01,2013-03-03 04:54:00,
2013-03-02 22:59:00,31.6,28.5,30.25,NE,49,0.0,0.0,88,0.00,,CLR,0.00,VWS V14.01,2013-03-03 04:59:00,
2013-03-02 23:00:00,31.6,28.5,30.25,NE,49,0.0,0.0,88,0.00,,CLR,0.00,VWS V14.01,2013-03-03 05:00:00,
2013-03-02 23:05:00,31.5,28.4,30.25,NE,49,0.0,0.0,88,0.00,,CLR,0.00,VWS V14.01,2013-03-03 05:05:00,
2013-03-02 23:10:00,31.5,28.6,30.25,NE,49,0.0,0.0,89,0.00,,CLR,0.00,VWS V14.01,2013-03-03 05:10:00,
2013-03-02 23:15:00,31.5,28.6,30.25,NE,49,0.0,0.0,89,0.00,,CLR,0.00,VWS V14.01,2013-03-03 05:15:00,
2013-03-02 23:20:00,31.4,28.5,30.25,NE,49,0.0,0.0,89,0.00,,CLR,0.00,VWS V14.01,2013-03-03 05:20:00,
2013-03-02 23:25:00,31.3,28.7,30.25,NE,49,0.0,0.0,90,0.00,,CLR,0.00,VWS V14.01,2013-03-03 05:25:00,
2013-03-02 23:30:00,31.3,28.7,30.25,NE,49,0.0,0.0,90,0.00,,CLR,0.00,VWS V14.01,2013-03-03 05:30:00,
2013-03-02 23:35:00,31.2,28.6,30.25,NE,49,0.0,0.0,90,0.00,,CLR,0.00,VWS V14.01,2013-03-03 05:35:00,
2013-03-02 23:40:00,31.1,28.5,30.25,NE,49,0.0,0.0,90,0.00,,CLR,0.00,VWS V14.01,2013-03-03 05:40:00,
2013-03-02 23:45:00,31.0,28.4,30.25,NE,49,0.0,0.0,90,0.00,,CLR,0.00,VWS V14.01,2013-03-03 05:45:00,
2013-03-02 23:50:00,30.9,28.3,30.25,NE,49,0.0,0.0,90,0.00,,CLR,0.00,VWS V14.01,2013-03-03 05:50:00,
2013-03-02 23:55:00,30.8,28.2,30.25,NE,49,0.0,0.0,90,0.00,,CLR,0.00,VWS V14.01,2013-03-03 05:55:00,